createdAt,value
2022-08-17T00:00:15.794Z,10.20
2022-08-17T00:03:06.816Z,10.30
2022-08-17T00:05:39.425Z,10.77
2022-08-17T00:08:07.445Z,11.90
2022-08-17T00:10:35.965Z,11.77
2022-08-17T00:13:07.776Z,10.52
2022-08-17T00:15:35.865Z,11.70
2022-08-17T00:18:04.302Z,11.23
2022-08-17T00:20:54.044Z,12.32
2022-08-17T00:23:22.176Z,11.93
2022-08-17T00:25:50.820Z,10.77
2022-08-17T00:28:19.784Z,10.77
2022-08-17T00:30:53.573Z,10.98
2022-08-17T00:33:24.359Z,10.80
2022-08-17T00:35:54.260Z,11.13
2022-08-17T00:38:23.052Z,10.50
2022-08-17T00:40:55.766Z,11.25
2022-08-17T00:43:29.441Z,10.77
2022-08-17T00:45:58.073Z,10.75
2022-08-17T00:48:26.270Z,11.57
2022-08-17T00:53:31.244Z,11.27
2022-08-17T00:56:00.478Z,10.75
2022-08-17T00:58:35.750Z,10.48
2022-08-17T01:01:05.358Z,11.93
2022-08-17T01:03:34.377Z,11.32
2022-08-17T01:06:05.046Z,11.73
2022-08-17T01:08:33.660Z,11.27
2022-08-17T01:11:02.641Z,10.93
2022-08-17T01:13:38.210Z,11.52
2022-08-17T01:16:20.253Z,11.27
2022-08-17T01:18:50.625Z,11.77
2022-08-17T01:21:24.133Z,11.73
2022-08-17T01:23:53.455Z,12.65
2022-08-17T01:26:21.519Z,12.20
2022-08-17T01:28:53.922Z,11.50
2022-08-17T01:31:25.668Z,11.95
2022-08-17T01:33:53.942Z,11.50
2022-08-17T01:36:21.940Z,12.30
2022-08-17T01:38:49.995Z,10.52
2022-08-17T01:41:19.961Z,11.45
2022-08-17T01:43:50.707Z,11.63
2022-08-17T01:46:23.158Z,11.73
2022-08-17T01:48:51.509Z,11.75
2022-08-17T01:51:19.912Z,10.73
2022-08-17T01:53:51.718Z,11.27
2022-08-17T01:56:23.390Z,12.00
2022-08-17T01:58:51.878Z,12.10
2022-08-17T02:01:22.022Z,11.98
2022-08-17T02:03:56.284Z,10.75
2022-08-17T02:06:29.093Z,12.63
2022-08-17T02:09:01.894Z,12.20
2022-08-17T02:11:34.665Z,13.13
2022-08-17T02:14:04.102Z,12.43
2022-08-17T02:16:37.863Z,12.90
2022-08-17T02:19:07.944Z,11.93
2022-08-17T02:21:36.528Z,12.70
2022-08-17T02:24:05.516Z,13.93
2022-08-17T02:26:34.919Z,13.27
2022-08-17T02:29:04.019Z,12.95
2022-08-17T02:31:32.310Z,12.98
2022-08-17T02:34:04.750Z,12.48
2022-08-17T02:36:34.287Z,12.98
2022-08-17T02:39:03.283Z,12.90
2022-08-17T02:41:31.289Z,12.40
2022-08-17T02:44:00.907Z,14.65
2022-08-17T02:46:29.968Z,13.98
2022-08-17T02:48:58.037Z,12.85
2022-08-17T02:51:26.312Z,13.75
2022-08-17T02:54:35.597Z,13.43
2022-08-17T02:56:42.316Z,14.32
2022-08-17T02:59:11.586Z,12.95
2022-08-17T03:01:39.645Z,12.93
2022-08-17T03:04:07.815Z,13.73
2022-08-17T03:06:35.899Z,12.73
2022-08-17T03:09:04.285Z,13.35
2022-08-17T03:11:32.705Z,13.23
2022-08-17T03:14:00.656Z,13.40
2022-08-17T03:16:29.958Z,12.82
2022-08-17T03:18:58.020Z,13.18
2022-08-17T03:21:25.959Z,14.60
2022-08-17T03:23:54.517Z,14.43
2022-08-17T03:26:22.747Z,14.68
2022-08-17T03:28:50.742Z,15.75
2022-08-17T03:31:20.661Z,13.80
2022-08-17T03:33:50.021Z,14.98
2022-08-17T03:36:17.992Z,14.32
2022-08-17T03:38:45.968Z,14.15
2022-08-17T03:41:14.554Z,14.70
2022-08-17T03:43:42.536Z,14.10
2022-08-17T03:46:35.008Z,13.50
2022-08-17T03:49:24.252Z,14.63
2022-08-17T03:52:10.010Z,13.25
2022-08-17T03:54:56.002Z,13.10
2022-08-17T03:57:24.616Z,13.73
2022-08-17T03:59:52.848Z,15.10
2022-08-17T04:02:24.680Z,13.93
2022-08-17T04:04:54.334Z,14.35
2022-08-17T04:07:24.364Z,15.35
2022-08-17T04:09:53.269Z,13.55
2022-08-17T04:12:22.923Z,13.90
2022-08-17T04:14:52.827Z,13.73
2022-08-17T04:17:24.171Z,13.10
2022-08-17T04:19:53.867Z,14.25
2022-08-17T04:22:31.850Z,12.38
2022-08-17T04:25:03.458Z,12.77
2022-08-17T04:27:31.754Z,13.02
2022-08-17T04:29:59.806Z,12.45
2022-08-17T04:33:05.526Z,12.93
2022-08-17T04:35:20.743Z,12.55
2022-08-17T04:37:48.701Z,11.30
2022-08-17T04:40:35.246Z,11.13
2022-08-17T04:43:05.094Z,11.25
2022-08-17T04:45:33.248Z,11.75
2022-08-17T04:48:01.812Z,10.73
2022-08-17T04:50:31.198Z,10.63
2022-08-17T04:52:59.463Z,10.73
2022-08-17T04:55:27.732Z,10.55
2022-08-17T04:57:55.791Z,10.18
2022-08-17T05:00:25.935Z,9.63
2022-08-17T05:02:56.188Z,9.00
2022-08-17T05:05:26.255Z,8.43
2022-08-17T05:07:56.898Z,8.38
2022-08-17T05:10:25.706Z,8.63
2022-08-17T05:12:59.471Z,7.90
2022-08-17T05:15:28.368Z,9.20
2022-08-17T05:18:01.444Z,9.15
2022-08-17T05:20:30.109Z,8.90
2022-08-17T05:23:01.819Z,9.07
2022-08-17T05:25:34.440Z,8.65
2022-08-17T05:28:05.454Z,9.20
2022-08-17T05:30:35.665Z,9.23
2022-08-17T05:33:05.419Z,8.30
2022-08-17T05:35:36.020Z,8.05
2022-08-17T05:38:05.787Z,8.63
2022-08-17T05:40:33.866Z,8.68
2022-08-17T05:43:06.817Z,9.43
2022-08-17T05:45:54.741Z,8.45
2022-08-17T05:48:39.413Z,8.35
2022-08-17T05:51:44.322Z,8.57
2022-08-17T05:54:30.038Z,8.60
2022-08-17T05:57:13.360Z,8.77
2022-08-17T05:59:48.507Z,8.68
2022-08-17T06:02:21.976Z,8.63
2022-08-17T06:05:13.827Z,8.52
2022-08-17T06:07:46.929Z,9.10
2022-08-17T06:10:24.181Z,7.72
2022-08-17T06:13:00.017Z,7.80
2022-08-17T06:15:32.183Z,8.52
2022-08-17T06:18:03.599Z,7.82
2022-08-17T06:20:44.797Z,7.57
2022-08-17T06:23:15.632Z,8.07
2022-08-17T06:25:49.234Z,7.40
2022-08-17T06:28:22.398Z,7.18
2022-08-17T06:30:58.622Z,7.10
2022-08-17T06:33:32.098Z,6.40
2022-08-17T06:36:09.303Z,6.70
2022-08-17T06:38:44.628Z,6.95
2022-08-17T06:41:19.752Z,6.43
2022-08-17T06:43:56.218Z,6.18
2022-08-17T06:46:27.461Z,6.45
2022-08-17T06:49:07.917Z,7.18
2022-08-17T06:51:39.494Z,6.47
2022-08-17T06:54:10.414Z,6.68
2022-08-17T06:56:53.780Z,6.40
2022-08-17T06:59:26.218Z,6.97
2022-08-17T07:02:01.281Z,6.53
2022-08-17T07:04:32.204Z,6.20
2022-08-17T07:07:24.043Z,6.40
2022-08-17T07:09:52.849Z,5.35
2022-08-17T07:12:25.677Z,6.22
2022-08-17T07:14:55.507Z,6.00
2022-08-17T07:17:46.497Z,6.13
2022-08-17T07:20:15.973Z,5.30
2022-08-17T07:22:57.769Z,5.72
2022-08-17T07:25:30.719Z,4.78
2022-08-17T07:28:04.254Z,4.88
2022-08-17T07:30:45.840Z,4.97
2022-08-17T07:33:17.773Z,5.40
2022-08-17T07:35:48.330Z,5.25
2022-08-17T07:38:25.069Z,4.90
2022-08-17T07:41:02.493Z,5.35
2022-08-17T07:43:33.963Z,4.65
2022-08-17T07:46:35.070Z,4.78
2022-08-17T07:49:26.078Z,4.50
2022-08-17T07:52:24.950Z,4.45
2022-08-17T07:54:54.467Z,4.88
2022-08-17T07:57:35.253Z,4.55
2022-08-17T08:00:29.177Z,4.68
2022-08-17T08:03:18.492Z,4.30
2022-08-17T08:05:55.940Z,4.10
2022-08-17T08:08:31.460Z,4.28
2022-08-17T08:11:03.554Z,4.43
2022-08-17T08:13:32.487Z,4.82
2022-08-17T08:16:24.174Z,4.28
2022-08-17T08:18:56.862Z,4.20
2022-08-17T08:21:39.461Z,4.03
2022-08-17T08:24:22.581Z,4.90
2022-08-17T08:26:56.315Z,4.25
2022-08-17T08:29:31.202Z,4.43
2022-08-17T08:32:08.685Z,4.80
2022-08-17T08:35:00.703Z,4.72
2022-08-17T08:37:42.928Z,4.28
2022-08-17T08:40:24.765Z,4.20
2022-08-17T08:42:57.952Z,4.10
2022-08-17T08:45:30.503Z,4.78
2022-08-17T08:48:22.956Z,5.00
2022-08-17T08:51:05.191Z,4.10
2022-08-17T08:53:36.929Z,4.70
2022-08-17T08:56:08.065Z,4.22
2022-08-17T08:58:43.660Z,4.47
2022-08-17T09:01:19.992Z,4.63
2022-08-17T09:04:12.047Z,4.22
2022-08-17T09:06:49.903Z,4.90
2022-08-17T09:09:25.244Z,4.30
2022-08-17T09:12:03.492Z,4.75
2022-08-17T09:14:46.707Z,4.15
2022-08-17T09:17:19.168Z,4.13
2022-08-17T09:22:25.484Z,4.20
2022-08-17T09:24:56.973Z,4.05
2022-08-17T09:27:28.911Z,4.00
2022-08-17T09:30:00.324Z,4.47
2022-08-17T09:32:34.569Z,3.97
2022-08-17T09:35:09.190Z,4.55
2022-08-17T09:37:54.871Z,3.50
2022-08-17T09:40:26.031Z,3.97
2022-08-17T09:42:57.388Z,3.90
2022-08-17T09:45:31.359Z,4.10
2022-08-17T09:48:04.941Z,3.70
2022-08-17T09:51:03.335Z,3.50
2022-08-17T09:53:31.558Z,3.85
2022-08-17T09:56:10.250Z,3.70
2022-08-17T09:59:04.895Z,3.30
2022-08-17T10:01:40.032Z,3.70
2022-08-17T10:04:29.312Z,3.67
2022-08-17T10:07:04.406Z,3.60
2022-08-17T10:09:40.749Z,3.55
2022-08-17T10:12:20.330Z,3.22
2022-08-17T10:14:56.058Z,3.67
2022-08-17T10:17:29.236Z,3.17
2022-08-17T10:20:01.889Z,3.50
2022-08-17T10:22:54.808Z,3.22
2022-08-17T10:25:56.722Z,2.90
2022-08-17T10:28:30.077Z,3.45
2022-08-17T10:31:30.913Z,3.38
2022-08-17T10:34:00.038Z,3.97
2022-08-17T10:36:37.999Z,3.47
2022-08-17T10:39:13.477Z,4.13
2022-08-17T10:41:46.703Z,3.50
2022-08-17T10:44:38.017Z,3.70
2022-08-17T10:47:11.305Z,3.38
2022-08-17T10:49:47.446Z,3.55
2022-08-17T10:52:49.929Z,3.38
2022-08-17T10:55:21.161Z,2.78
2022-08-17T10:57:50.641Z,3.00
2022-08-17T11:01:08.942Z,3.08
2022-08-17T11:03:37.040Z,3.28
2022-08-17T11:06:15.893Z,3.33
2022-08-17T11:08:58.954Z,3.35
2022-08-17T11:11:54.861Z,3.42
2022-08-17T11:14:39.126Z,3.40
2022-08-17T11:17:22.647Z,3.38
2022-08-17T11:20:14.117Z,3.22
2022-08-17T11:23:04.290Z,3.30
2022-08-17T11:25:39.172Z,3.08
2022-08-17T11:28:15.162Z,3.85
2022-08-17T11:30:48.568Z,3.63
2022-08-17T11:33:52.484Z,3.30
2022-08-17T11:36:25.551Z,3.70
2022-08-17T11:38:58.794Z,3.75
2022-08-17T11:41:31.554Z,3.80
2022-08-17T11:44:15.647Z,3.92
2022-08-17T11:47:13.465Z,4.32
2022-08-17T11:50:11.550Z,3.58
2022-08-17T11:52:42.326Z,3.70
2022-08-17T11:55:52.795Z,4.07
2022-08-17T11:58:38.457Z,3.30
2022-08-17T12:01:07.319Z,3.22
2022-08-17T12:03:55.374Z,3.75
2022-08-17T12:06:33.413Z,3.85
2022-08-17T12:09:06.249Z,3.90
2022-08-17T12:12:13.351Z,3.40
2022-08-17T12:17:39.365Z,3.53
2022-08-17T12:20:17.597Z,3.35
2022-08-17T12:22:56.559Z,3.38
2022-08-17T12:25:32.933Z,3.15
2022-08-17T12:28:06.015Z,3.38
2022-08-17T12:30:37.382Z,3.42
2022-08-17T12:33:13.334Z,3.97
2022-08-17T12:35:59.663Z,3.83
2022-08-17T12:38:32.251Z,2.88
2022-08-17T12:41:23.251Z,3.53
2022-08-17T12:44:02.255Z,3.55
2022-08-17T12:46:34.885Z,3.47
2022-08-17T12:49:27.413Z,3.45
2022-08-17T12:52:04.202Z,2.95
2022-08-17T12:54:40.151Z,3.28
2022-08-17T12:57:13.535Z,3.20
2022-08-17T12:59:45.249Z,3.85
2022-08-17T13:02:31.221Z,3.42
2022-08-17T13:05:00.910Z,3.20
2022-08-17T13:07:36.330Z,3.58
2022-08-17T13:10:05.452Z,3.60
2022-08-17T13:12:36.279Z,3.63
2022-08-17T13:15:04.920Z,3.00
2022-08-17T13:17:36.638Z,3.60
2022-08-17T13:20:06.372Z,3.25
2022-08-17T13:22:34.510Z,3.45
2022-08-17T13:25:05.504Z,3.53
2022-08-17T13:27:34.315Z,3.47
2022-08-17T13:30:05.585Z,3.45
2022-08-17T13:32:43.595Z,3.17
2022-08-17T13:35:38.915Z,3.25
2022-08-17T13:38:10.412Z,2.80
2022-08-17T13:40:44.725Z,3.75
2022-08-17T13:43:13.002Z,3.50
2022-08-17T13:45:51.130Z,3.85
2022-08-17T13:48:32.087Z,3.70
2022-08-17T13:51:31.351Z,3.30
2022-08-17T13:54:03.166Z,3.10
2022-08-17T13:59:09.663Z,3.72
2022-08-17T14:01:40.139Z,3.35
2022-08-17T14:04:11.357Z,3.10
2022-08-17T14:06:54.950Z,3.28
2022-08-17T14:09:25.755Z,3.10
2022-08-17T14:11:55.110Z,3.40
2022-08-17T14:14:24.162Z,3.33
2022-08-17T14:16:52.519Z,2.92
2022-08-17T14:19:22.755Z,3.42
2022-08-17T14:21:51.128Z,3.85
2022-08-17T14:24:23.893Z,4.13
2022-08-17T14:26:53.049Z,3.35
2022-08-17T14:29:21.521Z,3.42
2022-08-17T14:31:53.318Z,3.22
2022-08-17T14:34:24.784Z,3.20
2022-08-17T14:36:53.156Z,3.83
2022-08-17T14:39:21.335Z,3.35
2022-08-17T14:41:49.489Z,3.10
2022-08-17T14:44:17.629Z,3.25
2022-08-17T14:46:46.110Z,3.28
2022-08-17T14:49:15.620Z,3.40
2022-08-17T14:51:45.000Z,3.33
2022-08-17T14:54:33.026Z,3.42
2022-08-17T14:57:24.897Z,3.55
2022-08-17T14:59:53.412Z,3.80
2022-08-17T15:02:29.796Z,2.80
2022-08-17T15:05:02.536Z,4.18
2022-08-17T15:10:01.587Z,3.40
2022-08-17T15:12:33.714Z,3.75
2022-08-17T15:15:04.644Z,3.67
2022-08-17T15:17:54.960Z,3.88
2022-08-17T15:20:23.925Z,3.35
2022-08-17T15:22:55.069Z,3.50
2022-08-17T15:25:24.236Z,3.42
2022-08-17T15:27:52.786Z,3.67
2022-08-17T15:30:21.223Z,3.17
2022-08-17T15:32:54.438Z,3.75
2022-08-17T15:35:27.985Z,3.20
2022-08-17T15:38:03.521Z,3.20
2022-08-17T15:40:37.036Z,3.60
2022-08-17T15:43:06.461Z,3.08
2022-08-17T15:45:35.236Z,3.70
2022-08-17T15:48:03.484Z,3.50
2022-08-17T15:50:31.789Z,3.80
2022-08-17T15:53:02.158Z,3.50
2022-08-17T15:55:32.076Z,3.72
2022-08-17T15:58:00.340Z,3.97
2022-08-17T16:00:29.408Z,3.83
2022-08-17T16:03:45.549Z,3.80
2022-08-17T16:05:47.966Z,3.60
2022-08-17T16:08:20.927Z,4.13
2022-08-17T16:10:50.110Z,3.90
2022-08-17T16:13:19.730Z,3.60
2022-08-17T16:15:56.553Z,3.60
2022-08-17T16:18:26.636Z,4.18
2022-08-17T16:20:55.046Z,4.07
2022-08-17T16:23:24.845Z,3.70
2022-08-17T16:25:54.402Z,4.03
2022-08-17T16:28:35.597Z,3.80
2022-08-17T16:31:07.991Z,3.83
2022-08-17T16:33:37.682Z,4.07
2022-08-17T16:36:06.161Z,4.47
2022-08-17T16:38:35.865Z,3.95
2022-08-17T16:41:04.492Z,3.92
2022-08-17T16:43:32.548Z,5.10
2022-08-17T16:46:01.721Z,5.07
2022-08-17T16:48:29.996Z,5.47
2022-08-17T16:51:04.193Z,5.28
2022-08-17T16:53:32.591Z,4.28
2022-08-17T16:56:01.956Z,5.28
2022-08-17T16:58:30.149Z,4.30
2022-08-17T17:00:59.729Z,4.15
2022-08-17T17:03:28.806Z,4.22
2022-08-17T17:06:07.272Z,4.50
2022-08-17T17:08:42.045Z,3.95
2022-08-17T17:11:24.612Z,4.05
2022-08-17T17:13:57.867Z,4.43
2022-08-17T17:16:32.501Z,4.10
2022-08-17T17:19:11.129Z,4.05
2022-08-17T17:21:45.376Z,4.30
2022-08-17T17:24:16.797Z,4.43
2022-08-17T17:27:08.590Z,4.13
2022-08-17T17:29:47.134Z,3.67
2022-08-17T17:32:20.924Z,3.97
2022-08-17T17:34:51.900Z,4.25
2022-08-17T17:37:24.379Z,3.88
2022-08-17T17:39:54.296Z,4.13
2022-08-17T17:42:28.200Z,4.10
2022-08-17T17:45:05.901Z,4.40
2022-08-17T17:47:34.559Z,4.32
2022-08-17T17:50:03.914Z,3.90
2022-08-17T17:52:37.819Z,4.57
2022-08-17T17:55:13.156Z,3.97
2022-08-17T17:57:51.170Z,3.78
2022-08-17T18:00:23.462Z,4.22
2022-08-17T18:03:02.273Z,3.80
2022-08-17T18:05:46.561Z,4.20
2022-08-17T18:08:34.146Z,3.78
2022-08-17T18:11:14.626Z,4.50
2022-08-17T18:14:04.387Z,4.07
2022-08-17T18:16:33.096Z,4.75
2022-08-17T18:19:01.463Z,4.53
2022-08-17T18:21:36.289Z,4.32
2022-08-17T18:24:07.741Z,3.90
2022-08-17T18:26:40.121Z,4.78
2022-08-17T18:29:23.851Z,4.68
2022-08-17T18:32:13.692Z,6.57
2022-08-17T18:34:47.645Z,5.97
2022-08-17T18:37:32.864Z,7.53
2022-08-17T18:40:24.505Z,5.47
2022-08-17T18:42:59.617Z,4.43
2022-08-17T18:45:35.399Z,4.95
2022-08-17T18:48:03.510Z,5.35
2022-08-17T18:50:39.428Z,4.72
2022-08-17T18:53:38.771Z,5.05
2022-08-17T18:56:18.208Z,5.22
2022-08-17T18:58:51.870Z,5.18
2022-08-17T19:01:22.259Z,5.50
2022-08-17T19:04:28.356Z,4.97
2022-08-17T19:07:12.543Z,4.63
2022-08-17T19:09:46.552Z,5.43
2022-08-17T19:12:27.112Z,5.10
2022-08-17T19:14:57.230Z,5.40
2022-08-17T19:17:32.765Z,4.82
2022-08-17T19:20:03.867Z,6.07
2022-08-17T19:22:43.779Z,5.85
2022-08-17T19:25:16.252Z,4.85
2022-08-17T19:27:50.090Z,5.30
2022-08-17T19:30:20.263Z,5.13
2022-08-17T19:32:50.396Z,5.32
2022-08-17T19:35:20.206Z,5.85
2022-08-17T19:37:54.042Z,5.53
2022-08-17T19:43:24.946Z,5.72
2022-08-17T19:46:03.862Z,5.38
2022-08-17T19:48:40.956Z,6.10
2022-08-17T19:51:11.724Z,5.55
2022-08-17T19:54:04.373Z,5.78
2022-08-17T19:56:37.514Z,5.55
2022-08-17T19:59:12.981Z,5.90
2022-08-17T20:01:46.741Z,6.57
2022-08-17T20:04:22.279Z,6.50
2022-08-17T20:06:50.470Z,6.40
2022-08-17T20:09:22.422Z,5.80
2022-08-17T20:11:54.110Z,6.47
2022-08-17T20:14:25.654Z,6.10
2022-08-17T20:16:54.037Z,6.63
2022-08-17T20:19:25.669Z,5.93
2022-08-17T20:21:55.906Z,6.22
2022-08-17T20:24:29.321Z,6.75
2022-08-17T20:26:59.814Z,7.10
2022-08-17T20:29:39.640Z,6.50
2022-08-17T20:32:16.317Z,6.95
2022-08-17T20:34:47.708Z,6.20
2022-08-17T20:37:31.394Z,6.87
2022-08-17T20:40:21.317Z,7.03
2022-08-17T20:42:49.368Z,6.50
2022-08-17T20:45:49.824Z,6.50
2022-08-17T20:48:36.938Z,6.40
2022-08-17T20:51:29.579Z,7.07
2022-08-17T20:54:08.476Z,7.22
2022-08-17T20:56:53.710Z,7.30
2022-08-17T21:00:00.593Z,7.10
2022-08-17T21:02:29.581Z,7.35
2022-08-17T21:05:27.516Z,7.38
2022-08-17T21:08:01.464Z,7.47
2022-08-17T21:10:35.593Z,7.53
2022-08-17T21:13:48.613Z,7.72
2022-08-17T21:16:40.484Z,7.13
2022-08-17T21:19:22.833Z,7.50
2022-08-17T21:22:01.950Z,7.57
2022-08-17T21:24:44.462Z,7.75
2022-08-17T21:27:23.436Z,7.68
2022-08-17T21:29:53.867Z,7.65
2022-08-17T21:32:29.529Z,7.78
2022-08-17T21:35:24.761Z,7.93
2022-08-17T21:37:57.428Z,8.27
2022-08-17T21:40:28.969Z,7.53
2022-08-17T21:42:59.963Z,8.70
2022-08-17T21:45:31.215Z,7.95
2022-08-17T21:48:13.931Z,8.00
2022-08-17T21:50:44.150Z,8.05
2022-08-17T21:53:14.543Z,8.40
2022-08-17T21:55:43.890Z,7.65
2022-08-17T21:58:24.370Z,8.45
2022-08-17T22:01:11.610Z,8.27
2022-08-17T22:03:39.968Z,8.45
2022-08-17T22:06:22.397Z,8.32
2022-08-17T22:09:12.724Z,7.60
2022-08-17T22:11:55.220Z,7.63
2022-08-17T22:14:25.653Z,8.48
2022-08-17T22:17:14.592Z,8.52
2022-08-17T22:19:44.595Z,8.40
2022-08-17T22:22:26.321Z,8.30
2022-08-17T22:24:57.456Z,8.52
2022-08-17T22:27:55.784Z,8.83
2022-08-17T22:30:31.130Z,9.13
2022-08-17T22:32:59.449Z,8.05
2022-08-17T22:35:34.740Z,8.32
2022-08-17T22:38:33.759Z,8.77
2022-08-17T22:41:25.541Z,9.15
2022-08-17T22:43:57.416Z,9.18
2022-08-17T22:46:26.195Z,8.43
2022-08-17T22:48:57.625Z,9.18
2022-08-17T22:51:28.797Z,8.30
2022-08-17T22:54:17.707Z,8.95
2022-08-17T22:57:15.183Z,8.38
2022-08-17T22:59:50.694Z,9.05
2022-08-17T23:02:25.123Z,8.95
2022-08-17T23:04:57.371Z,8.50
2022-08-17T23:09:54.102Z,9.23
2022-08-17T23:12:26.284Z,8.05
2022-08-17T23:17:33.905Z,10.15
2022-08-17T23:20:06.135Z,8.57
2022-08-17T23:22:34.191Z,8.77
2022-08-17T23:25:03.195Z,8.65
2022-08-17T23:27:31.799Z,9.02
2022-08-17T23:30:01.215Z,9.10
2022-08-17T23:32:29.208Z,9.10
2022-08-17T23:34:59.114Z,9.52
2022-08-17T23:37:27.583Z,9.48
2022-08-17T23:39:55.564Z,9.15
2022-08-17T23:42:23.770Z,9.95
2022-08-17T23:44:51.764Z,9.63
2022-08-17T23:47:21.272Z,9.68
2022-08-17T23:49:49.285Z,10.13
2022-08-17T23:52:22.738Z,9.82
2022-08-17T23:54:50.697Z,10.40
2022-08-17T23:57:20.405Z,9.35
